Time;durP1;ratioP1;P1;durP2;ratioP2;P2;SDS_P1;SDS_P2;PMS_P1;PMS_P2;Temp;Humidity;BMP_temperature;BMP_pressure;BME280_temperature;BME280_humidity;BME280_pressure;Samples;Min_cycle;Max_cycle;Signal;HPM_P1;HPM_P2
2023/01/10 00:00:39;;;;;;;22.13;6.90;;;5.20;99.90;;;;;;5030604;28;20021;-57
2023/01/10 00:03:07;;;;;;;15.90;7.10;;;5.20;99.90;;;;;;5030118;28;20029;-57
2023/01/10 00:05:35;;;;;;;19.00;6.45;;;5.20;99.90;;;;;;5030725;28;20052;-57
2023/01/10 00:08:02;;;;;;;18.70;6.10;;;5.20;99.90;;;;;;5028782;28;20385;-57
2023/01/10 00:10:28;;;;;;;16.03;5.73;;;5.20;99.90;;;;;;5029776;28;20510;-57
2023/01/10 00:15:38;;;;;;;23.57;5.63;;;5.20;99.90;;;;;;5029700;28;20048;-57
2023/01/10 00:18:04;;;;;;;15.03;5.80;;;5.20;99.90;;;;;;5029990;28;20038;-57
2023/01/10 00:20:30;;;;;;;16.03;5.47;;;5.20;99.90;;;;;;5028919;28;20040;-57
2023/01/10 00:22:56;;;;;;;16.80;5.73;;;5.20;99.90;;;;;;5029071;28;20032;-57
2023/01/10 00:25:22;;;;;;;24.77;5.73;;;5.20;99.90;;;;;;5030378;28;20030;-58
2023/01/10 00:27:52;;;;;;;14.67;5.30;;;5.20;99.90;;;;;;5029081;28;20116;-58
2023/01/10 00:30:18;;;;;;;15.90;5.57;;;5.30;99.90;;;;;;5029697;28;20071;-58
2023/01/10 00:32:44;;;;;;;13.90;5.30;;;5.30;99.90;;;;;;5029869;28;20057;-58
2023/01/10 00:35:11;;;;;;;15.00;4.83;;;5.30;99.90;;;;;;5029904;28;20095;-57
2023/01/10 00:37:39;;;;;;;17.07;4.80;;;5.40;99.90;;;;;;5011292;28;20648;-57
2023/01/10 00:40:07;;;;;;;12.40;4.90;;;5.40;99.90;;;;;;5029724;28;20040;-58
2023/01/10 00:45:19;;;;;;;13.90;4.53;;;5.30;99.90;;;;;;5029956;28;20037;-58
2023/01/10 00:47:45;;;;;;;13.97;4.30;;;5.30;99.90;;;;;;5029050;28;20374;-57
2023/01/10 00:50:11;;;;;;;16.17;5.07;;;5.30;99.90;;;;;;5028625;28;20116;-57
2023/01/10 00:52:36;;;;;;;14.10;4.50;;;5.30;99.90;;;;;;5028756;28;20413;-57
2023/01/10 00:55:02;;;;;;;12.83;4.83;;;5.40;99.90;;;;;;5029566;28;20033;-57
2023/01/10 00:57:28;;;;;;;14.00;4.87;;;5.40;99.90;;;;;;5028261;28;20025;-57
2023/01/10 00:59:54;;;;;;;16.43;4.23;;;5.50;99.90;;;;;;5030703;28;20071;-57
2023/01/10 01:02:19;;;;;;;13.93;3.93;;;5.50;99.90;;;;;;5030690;28;20339;-57
2023/01/10 01:04:45;;;;;;;19.70;4.60;;;5.50;99.90;;;;;;5029195;28;20065;-57
2023/01/10 01:07:11;;;;;;;14.70;3.90;;;5.50;99.90;;;;;;5028334;28;20131;-57
2023/01/10 01:10:25;;;;;;;15.07;3.87;;;5.60;99.90;;;;;;5028843;28;20064;-57
2023/01/10 01:12:22;;;;;;;16.73;3.80;;;5.60;99.90;;;;;;5028160;28;20122;-57
2023/01/10 01:14:48;;;;;;;20.77;3.87;;;5.60;99.90;;;;;;5028447;28;20109;-58
2023/01/10 01:17:14;;;;;;;18.67;4.40;;;5.60;99.90;;;;;;5028281;28;20053;-57
2023/01/10 01:19:40;;;;;;;17.60;3.80;;;5.60;99.90;;;;;;5028785;28;20029;-57
2023/01/10 01:22:06;;;;;;;15.77;3.70;;;5.70;99.90;;;;;;5028572;28;20032;-57
2023/01/10 01:24:31;;;;;;;15.37;3.63;;;5.70;99.90;;;;;;5028321;28;20104;-57
2023/01/10 01:26:57;;;;;;;17.20;3.60;;;5.80;99.90;;;;;;5028347;28;20577;-57
2023/01/10 01:29:23;;;;;;;16.07;3.90;;;5.80;99.90;;;;;;5010624;28;20131;-57
2023/01/10 01:31:49;;;;;;;18.00;3.43;;;5.80;99.90;;;;;;5028719;28;20041;-57
2023/01/10 01:34:15;;;;;;;15.50;3.30;;;5.90;99.90;;;;;;5028500;28;20043;-57
2023/01/10 01:36:40;;;;;;;12.33;3.50;;;5.90;99.90;;;;;;5031289;28;20029;-57
2023/01/10 01:39:06;;;;;;;13.33;3.10;;;6.00;99.90;;;;;;5032052;28;20060;-57
2023/01/10 01:44:18;;;;;;;12.80;3.00;;;6.00;99.90;;;;;;5031724;28;20517;-57
2023/01/10 01:47:12;;;;;;;14.00;3.00;;;6.00;99.90;;;;;;5032078;28;20067;-57
2023/01/10 01:49:41;;;;;;;18.07;3.53;;;6.00;99.90;;;;;;5031917;28;20030;-57
2023/01/10 01:52:21;;;;;;;13.20;2.58;;;6.10;99.90;;;;;;5031529;28;20038;-57
2023/01/10 01:54:47;;;;;;;13.93;2.80;;;6.10;99.90;;;;;;5032305;28;20128;-57
2023/01/10 01:57:19;;;;;;;9.93;2.80;;;6.00;99.90;;;;;;5031361;28;20108;-57
2023/01/10 01:59:48;;;;;;;15.57;3.07;;;6.00;99.90;;;;;;5031953;28;20048;-57
2023/01/10 02:02:20;;;;;;;9.97;3.00;;;6.00;99.90;;;;;;5032558;28;20084;-57
2023/01/10 02:04:51;;;;;;;11.60;2.70;;;6.00;99.90;;;;;;5032345;28;20052;-57
2023/01/10 02:07:18;;;;;;;12.40;2.77;;;6.00;99.90;;;;;;5031528;28;20037;-57
2023/01/10 02:10:00;;;;;;;15.73;3.47;;;6.00;99.90;;;;;;5032083;28;20498;-57
2023/01/10 02:12:28;;;;;;;15.20;2.83;;;6.00;99.90;;;;;;5030726;28;20055;-57
2023/01/10 02:14:53;;;;;;;15.63;2.70;;;6.00;99.90;;;;;;5032060;28;20037;-57
2023/01/10 02:17:19;;;;;;;15.90;2.53;;;6.10;99.90;;;;;;5031497;28;20035;-57
2023/01/10 02:19:56;;;;;;;9.10;2.30;;;6.10;99.90;;;;;;5031400;28;20018;-57
2023/01/10 02:22:43;;;;;;;14.53;2.70;;;6.10;99.90;;;;;;5031009;28;20065;-57
2023/01/10 02:25:09;;;;;;;17.33;2.97;;;6.00;99.90;;;;;;5031546;28;20112;-57
2023/01/10 02:28:04;;;;;;;15.13;3.33;;;6.00;99.90;;;;;;5030663;28;20136;-57
2023/01/10 02:30:40;;;;;;;16.37;3.10;;;5.90;99.90;;;;;;5031553;28;20119;-57
2023/01/10 02:33:21;;;;;;;14.17;3.40;;;5.80;99.90;;;;;;5031101;28;20140;-57
2023/01/10 02:35:55;;;;;;;10.73;2.73;;;5.80;99.90;;;;;;5031318;28;20334;-57
2023/01/10 02:38:50;;;;;;;20.30;4.13;;;5.70;99.90;;;;;;5030772;28;20029;-57
2023/01/10 02:41:40;;;;;;;11.27;3.47;;;5.70;99.90;;;;;;5013594;28;20159;-57
2023/01/10 02:44:50;;;;;;;12.37;2.97;;;5.60;99.90;;;;;;5030714;28;20033;-57
2023/01/10 02:47:16;;;;;;;17.37;3.33;;;5.60;99.90;;;;;;5002342;28;20041;-58
2023/01/10 02:49:47;;;;;;;15.70;3.33;;;5.60;99.90;;;;;;5031113;28;20060;-57
2023/01/10 02:52:19;;;;;;;16.73;3.33;;;5.60;99.90;;;;;;5030831;28;20045;-57
2023/01/10 02:54:45;;;;;;;16.63;3.40;;;5.60;99.90;;;;;;5031402;28;20338;-57
2023/01/10 02:57:39;;;;;;;15.97;4.20;;;5.60;99.90;;;;;;5030347;28;20036;-57
2023/01/10 03:00:23;;;;;;;14.40;4.37;;;5.60;99.90;;;;;;5030985;28;20066;-57
2023/01/10 03:03:00;;;;;;;15.63;4.30;;;5.60;99.90;;;;;;5030608;28;20544;-57
2023/01/10 03:05:50;;;;;;;21.23;4.63;;;5.60;99.90;;;;;;5031262;28;20025;-57
2023/01/10 03:08:54;;;;;;;22.47;4.90;;;5.50;99.90;;;;;;5041658;23;20176;-52
2023/01/10 03:11:38;;;;;;;24.47;4.07;;;5.60;99.90;;;;;;5031246;28;20033;-49
2023/01/10 03:14:09;;;;;;;20.97;4.20;;;5.50;99.90;;;;;;5030117;28;20040;-50
2023/01/10 03:16:36;;;;;;;12.27;4.17;;;5.60;99.90;;;;;;5031006;28;20038;-54
2023/01/10 03:19:31;;;;;;;16.93;4.10;;;5.60;99.90;;;;;;5030405;28;20045;-49
2023/01/10 03:22:00;;;;;;;15.13;4.07;;;5.50;99.90;;;;;;5028982;28;20029;-53
2023/01/10 03:24:32;;;;;;;18.50;4.10;;;5.50;99.90;;;;;;5030815;28;20049;-52
2023/01/10 03:27:19;;;;;;;15.47;3.30;;;5.40;99.90;;;;;;5029750;28;20147;-51
2023/01/10 03:30:05;;;;;;;18.50;2.87;;;5.40;99.90;;;;;;5030499;28;20105;-50
2023/01/10 03:32:32;;;;;;;17.67;3.00;;;5.30;99.90;;;;;;5030639;28;20580;-51
2023/01/10 03:34:59;;;;;;;10.37;2.53;;;5.30;99.90;;;;;;5030806;28;20038;-50
2023/01/10 03:37:54;;;;;;;17.23;2.50;;;5.20;99.90;;;;;;5029975;28;20397;-51
2023/01/10 03:40:31;;;;;;;14.70;3.03;;;5.10;99.90;;;;;;5030713;28;20034;-49
2023/01/10 03:45:59;;;;;;;20.00;3.33;;;5.00;99.90;;;;;;5031091;28;20087;-50
2023/01/10 03:48:29;;;;;;;18.77;3.80;;;5.00;99.90;;;;;;5029972;28;20193;-49
2023/01/10 03:50:57;;;;;;;18.03;3.27;;;4.90;99.90;;;;;;5030542;28;20421;-53
2023/01/10 03:53:23;;;;;;;13.07;2.70;;;4.90;99.90;;;;;;5029917;28;20037;-49
2023/01/10 03:55:49;;;;;;;13.37;2.97;;;4.90;99.90;;;;;;5030609;28;20111;-52
2023/01/10 03:58:16;;;;;;;11.17;3.37;;;4.90;99.90;;;;;;5028382;28;20343;-52
2023/01/10 04:00:41;;;;;;;15.57;2.80;;;4.90;99.90;;;;;;5030158;28;20095;-49
2023/01/10 04:03:08;;;;;;;14.97;2.90;;;4.90;99.90;;;;;;5030036;28;20037;-49
2023/01/10 04:05:34;;;;;;;13.30;3.37;;;4.90;99.90;;;;;;5030434;28;20050;-54
2023/01/10 04:08:00;;;;;;;17.07;3.40;;;4.90;99.90;;;;;;5027822;28;20604;-51
2023/01/10 04:10:28;;;;;;;18.67;3.17;;;4.90;99.90;;;;;;5030249;28;20149;-51
2023/01/10 04:12:54;;;;;;;15.57;3.00;;;5.00;99.90;;;;;;5028931;28;20091;-53
2023/01/10 04:15:20;;;;;;;19.80;2.90;;;5.00;99.90;;;;;;5029752;28;20045;-54
2023/01/10 04:17:47;;;;;;;16.20;2.87;;;5.10;99.90;;;;;;5029792;28;20060;-49
2023/01/10 04:20:13;;;;;;;14.37;3.03;;;5.10;99.90;;;;;;5029599;28;20368;-51
2023/01/10 04:22:39;;;;;;;13.80;2.73;;;5.10;99.90;;;;;;5014634;28;20120;-52
2023/01/10 04:25:05;;;;;;;13.87;3.10;;;5.10;99.90;;;;;;5009632;28;20030;-49
2023/01/10 04:27:31;;;;;;;19.87;3.07;;;5.10;99.90;;;;;;5008901;28;20563;-48
2023/01/10 04:29:56;;;;;;;15.13;3.50;;;5.10;99.90;;;;;;5009329;28;20113;-52
2023/01/10 04:32:22;;;;;;;13.47;2.83;;;5.10;99.90;;;;;;5009159;28;20095;-54
2023/01/10 04:34:48;;;;;;;13.77;3.13;;;5.10;99.90;;;;;;5009112;28;20105;-53
2023/01/10 04:37:13;;;;;;;14.90;2.63;;;5.10;99.90;;;;;;5009061;28;20022;-49
2023/01/10 04:39:39;;;;;;;18.27;2.90;;;5.10;99.90;;;;;;5009302;28;20422;-48
2023/01/10 04:42:05;;;;;;;17.27;2.90;;;5.10;99.90;;;;;;5008527;28;20530;-50
2023/01/10 04:44:30;;;;;;;17.17;3.07;;;5.00;99.90;;;;;;5008545;28;20111;-50
2023/01/10 04:46:56;;;;;;;20.00;3.37;;;5.00;99.90;;;;;;5027065;28;20628;-50
2023/01/10 04:49:22;;;;;;;16.97;2.77;;;5.00;99.90;;;;;;5028774;28;20029;-49
2023/01/10 04:51:47;;;;;;;13.93;2.70;;;5.00;99.90;;;;;;5029074;28;20029;-46
2023/01/10 04:54:13;;;;;;;19.20;3.40;;;5.10;99.90;;;;;;5028421;28;20534;-46
2023/01/10 04:56:39;;;;;;;16.30;3.07;;;5.10;99.90;;;;;;5028864;28;20026;-49
2023/01/10 04:59:05;;;;;;;18.73;3.80;;;5.10;99.90;;;;;;5028175;28;20052;-50
2023/01/10 05:01:31;;;;;;;20.77;3.97;;;5.10;99.90;;;;;;5029120;28;20033;-52
2023/01/10 05:03:57;;;;;;;20.57;3.87;;;5.10;99.90;;;;;;5029019;28;20041;-50
2023/01/10 05:06:24;;;;;;;18.13;4.93;;;5.10;99.90;;;;;;5028930;28;20025;-51
2023/01/10 05:08:50;;;;;;;17.40;4.50;;;5.10;99.90;;;;;;5028130;28;20029;-49
2023/01/10 05:11:15;;;;;;;17.63;4.83;;;5.10;99.90;;;;;;5028970;28;20033;-50
2023/01/10 05:13:41;;;;;;;18.80;4.57;;;5.10;99.90;;;;;;5028086;28;20136;-51
2023/01/10 05:16:07;;;;;;;19.93;4.43;;;5.00;99.90;;;;;;5028655;28;20030;-52
2023/01/10 05:18:33;;;;;;;23.93;4.77;;;4.90;99.90;;;;;;5028058;28;20038;-53
2023/01/10 05:21:00;;;;;;;13.63;3.30;;;4.80;99.90;;;;;;5028947;28;20037;-52
2023/01/10 05:23:27;;;;;;;15.53;3.70;;;4.90;99.90;;;;;;5028467;28;20377;-52
2023/01/10 05:25:53;;;;;;;17.20;3.97;;;4.80;99.90;;;;;;5028774;28;20033;-51
2023/01/10 05:28:18;;;;;;;15.90;3.17;;;4.70;99.90;;;;;;5027827;28;20370;-51
2023/01/10 05:30:44;;;;;;;16.60;4.00;;;4.60;99.90;;;;;;5028370;28;20029;-52
2023/01/10 05:33:10;;;;;;;19.60;3.60;;;4.60;99.90;;;;;;5028242;28;20033;-50
2023/01/10 05:35:35;;;;;;;18.80;3.37;;;4.60;99.90;;;;;;5028334;28;20057;-53
2023/01/10 05:38:01;;;;;;;14.17;2.80;;;4.60;99.90;;;;;;5027570;28;20033;-50
2023/01/10 05:40:27;;;;;;;18.60;3.20;;;4.50;99.90;;;;;;5028558;28;20033;-47
2023/01/10 05:42:53;;;;;;;22.57;3.77;;;4.50;99.90;;;;;;5027983;28;20026;-48
2023/01/10 05:45:18;;;;;;;14.13;2.60;;;4.50;99.90;;;;;;5028760;28;20040;-49
2023/01/10 05:47:44;;;;;;;16.57;3.30;;;4.50;99.90;;;;;;5028259;28;20033;-49
2023/01/10 05:50:10;;;;;;;20.70;3.20;;;4.50;99.90;;;;;;5029030;28;20095;-52
2023/01/10 05:52:35;;;;;;;19.90;3.53;;;4.50;99.90;;;;;;5028547;28;20582;-52
2023/01/10 05:55:01;;;;;;;23.37;3.63;;;4.50;99.90;;;;;;5028880;28;20169;-51
2023/01/10 05:57:27;;;;;;;16.03;3.20;;;4.40;99.90;;;;;;5027767;28;20083;-52
2023/01/10 05:59:53;;;;;;;18.37;3.20;;;4.40;99.90;;;;;;5028495;28;20064;-52
2023/01/10 06:02:18;;;;;;;16.37;3.03;;;4.40;99.90;;;;;;5028481;28;20037;-50
2023/01/10 06:04:44;;;;;;;22.70;3.47;;;4.30;99.90;;;;;;5028780;28;20033;-48
2023/01/10 06:07:10;;;;;;;21.50;3.30;;;4.30;99.90;;;;;;5027781;28;20125;-51
2023/01/10 06:09:35;;;;;;;16.53;3.33;;;4.40;99.90;;;;;;5028623;28;20219;-52
2023/01/10 06:12:01;;;;;;;21.67;3.27;;;4.40;99.90;;;;;;5028211;28;20045;-52
2023/01/10 06:14:27;;;;;;;22.60;4.47;;;4.40;99.90;;;;;;5028277;28;20033;-50
2023/01/10 06:16:52;;;;;;;23.73;3.73;;;4.30;99.90;;;;;;5028652;28;20084;-49
2023/01/10 06:19:18;;;;;;;18.83;3.13;;;4.30;99.90;;;;;;5028095;28;20033;-47
2023/01/10 06:21:44;;;;;;;14.77;2.80;;;4.30;99.90;;;;;;5029988;28;20142;-51
2023/01/10 06:24:10;;;;;;;19.33;3.57;;;4.30;99.90;;;;;;5031211;28;20037;-47
2023/01/10 06:26:35;;;;;;;19.07;3.50;;;4.30;99.90;;;;;;5030665;28;20029;-52
2023/01/10 06:29:01;;;;;;;25.27;3.70;;;4.20;99.90;;;;;;5028093;28;20025;-50
2023/01/10 06:31:27;;;;;;;20.57;4.33;;;4.30;99.90;;;;;;5031661;28;20034;-50
2023/01/10 06:33:52;;;;;;;20.73;3.67;;;4.30;99.90;;;;;;5031420;28;20029;-53
2023/01/10 06:36:19;;;;;;;19.90;3.30;;;4.40;99.90;;;;;;5031565;28;20122;-55
2023/01/10 06:38:45;;;;;;;24.60;3.97;;;4.40;99.90;;;;;;5030977;28;20034;-52
2023/01/10 06:41:14;;;;;;;17.87;3.70;;;4.40;99.90;;;;;;5031713;28;20544;-54
2023/01/10 06:43:44;;;;;;;17.98;3.35;;;4.40;99.90;;;;;;5030565;28;20037;-51
2023/01/10 06:46:15;;;;;;;19.90;2.90;;;4.40;99.90;;;;;;5031415;28;20026;-55
2023/01/10 06:48:44;;;;;;;17.87;3.60;;;4.40;99.90;;;;;;5030779;28;20040;-52
2023/01/10 06:51:11;;;;;;;23.38;3.75;;;4.40;99.90;;;;;;5031404;28;20092;-51
2023/01/10 06:53:37;;;;;;;20.27;4.17;;;4.40;99.90;;;;;;5030838;28;20035;-61
2023/01/10 06:56:04;;;;;;;19.03;3.40;;;4.30;99.90;;;;;;5031693;28;20409;-53
2023/01/10 06:58:31;;;;;;;20.00;3.97;;;4.30;99.90;;;;;;5030265;28;20033;-53
2023/01/10 07:00:57;;;;;;;22.07;4.50;;;4.40;99.90;;;;;;5031583;28;20048;-53
2023/01/10 07:03:22;;;;;;;24.53;4.03;;;4.40;99.90;;;;;;5031158;28;20109;-51
2023/01/10 07:05:48;;;;;;;21.13;3.50;;;4.40;99.90;;;;;;5031376;28;20068;-52
2023/01/10 07:08:15;;;;;;;24.83;3.47;;;4.50;99.90;;;;;;5030101;28;20128;-47
2023/01/10 07:10:42;;;;;;;27.90;3.60;;;4.50;99.90;;;;;;5030831;28;20060;-50
2023/01/10 07:13:08;;;;;;;23.30;3.57;;;4.50;99.90;;;;;;5030100;28;20034;-54
2023/01/10 07:15:35;;;;;;;30.97;4.70;;;4.50;99.90;;;;;;5029764;28;20407;-52
2023/01/10 07:18:02;;;;;;;24.60;3.57;;;4.60;99.90;;;;;;5044432;28;20497;-53
2023/01/10 07:20:28;;;;;;;30.97;5.10;;;4.60;99.90;;;;;;5030369;28;20026;-49
2023/01/10 07:22:55;;;;;;;22.87;4.10;;;4.70;99.90;;;;;;5029754;28;20041;-48
2023/01/10 07:25:22;;;;;;;20.27;3.80;;;4.80;99.90;;;;;;5030327;28;20029;-52
2023/01/10 07:27:48;;;;;;;22.83;4.27;;;4.80;99.90;;;;;;5029434;28;20037;-50
2023/01/10 07:30:14;;;;;;;21.53;3.80;;;4.80;99.90;;;;;;5030044;28;20040;-52
2023/01/10 07:32:39;;;;;;;22.77;4.00;;;4.80;99.90;;;;;;5030214;28;20041;-51
2023/01/10 07:35:05;;;;;;;24.00;3.50;;;4.80;99.90;;;;;;5030309;28;20029;-51
2023/01/10 07:37:31;;;;;;;25.50;4.33;;;4.80;99.90;;;;;;5029260;28;20427;-51
2023/01/10 07:39:57;;;;;;;24.60;4.30;;;4.80;99.90;;;;;;5029839;28;20120;-54
2023/01/10 07:42:22;;;;;;;18.57;4.03;;;4.80;99.90;;;;;;5029327;28;20041;-52
2023/01/10 07:44:48;;;;;;;20.13;4.10;;;4.80;99.90;;;;;;5030175;28;20113;-54
2023/01/10 07:47:14;;;;;;;25.87;3.83;;;4.80;99.90;;;;;;5029339;28;20471;-54
2023/01/10 07:49:39;;;;;;;29.13;4.40;;;4.80;99.90;;;;;;5029996;28;20037;-52
2023/01/10 07:52:07;;;;;;;25.27;4.20;;;4.90;99.90;;;;;;5029320;28;20441;-53
2023/01/10 07:54:34;;;;;;;23.53;4.67;;;4.90;99.90;;;;;;5029976;28;20036;-50
2023/01/10 07:57:00;;;;;;;22.33;3.37;;;5.00;99.90;;;;;;5029037;28;20128;-51
2023/01/10 07:59:25;;;;;;;25.53;3.90;;;5.00;99.90;;;;;;5029269;28;20125;-54
2023/01/10 08:01:52;;;;;;;25.27;4.43;;;5.00;99.90;;;;;;5029486;28;20025;-48
2023/01/10 08:04:19;;;;;;;28.33;4.37;;;5.00;99.90;;;;;;5029483;28;20026;-52
2023/01/10 08:06:44;;;;;;;20.03;3.63;;;5.00;99.90;;;;;;5028899;28;20025;-55
2023/01/10 08:09:10;;;;;;;20.03;3.60;;;5.10;99.90;;;;;;5028768;28;20518;-52
2023/01/10 08:11:36;;;;;;;22.13;3.63;;;5.10;99.90;;;;;;5029452;28;20120;-52
2023/01/10 08:14:01;;;;;;;20.07;3.60;;;5.10;99.90;;;;;;5028139;28;20067;-53
2023/01/10 08:16:27;;;;;;;24.03;4.10;;;5.10;99.90;;;;;;5028570;28;20441;-53
2023/01/10 08:18:53;;;;;;;30.10;4.70;;;5.20;99.90;;;;;;5028671;28;20034;-64
2023/01/10 08:21:19;;;;;;;28.23;5.43;;;5.20;99.90;;;;;;5029480;28;20056;-51
2023/01/10 08:23:44;;;;;;;24.70;4.63;;;5.30;99.90;;;;;;5028277;28;20079;-51
2023/01/10 08:26:10;;;;;;;28.77;3.83;;;5.30;99.90;;;;;;5028871;28;20041;-53
2023/01/10 08:28:36;;;;;;;26.20;3.83;;;5.40;99.90;;;;;;5027603;28;20036;-54
2023/01/10 08:31:07;;;;;;;27.97;4.50;;;5.40;99.90;;;;;;5029082;28;20621;-49
2023/01/10 08:33:32;;;;;;;21.37;4.13;;;5.40;99.90;;;;;;5028821;28;20075;-51
2023/01/10 08:35:58;;;;;;;24.77;4.43;;;5.30;99.90;;;;;;5029170;28;20106;-59
2023/01/10 08:38:24;;;;;;;20.13;4.00;;;5.30;99.90;;;;;;5027930;28;20029;-56
2023/01/10 08:40:49;;;;;;;23.50;4.47;;;5.20;99.90;;;;;;5029071;28;20025;-55
2023/01/10 08:43:15;;;;;;;21.07;4.07;;;5.10;99.90;;;;;;5028040;28;20689;-54
2023/01/10 08:45:41;;;;;;;23.77;4.07;;;5.00;99.90;;;;;;5028446;28;20025;-54
2023/01/10 08:48:08;;;;;;;28.27;4.97;;;5.00;99.90;;;;;;5028262;28;20029;-54
2023/01/10 08:50:34;;;;;;;28.13;4.47;;;5.00;99.90;;;;;;5028614;28;20520;-51
2023/01/10 08:53:00;;;;;;;23.70;4.33;;;5.00;99.90;;;;;;5028270;28;20462;-52
2023/01/10 08:55:27;;;;;;;23.37;4.27;;;5.00;99.90;;;;;;5028762;28;20052;-55
2023/01/10 08:57:53;;;;;;;16.90;3.63;;;5.10;99.90;;;;;;5027647;28;20409;-55
2023/01/10 09:00:20;;;;;;;25.77;4.30;;;5.10;99.90;;;;;;5028817;28;20033;-54
2023/01/10 09:02:45;;;;;;;25.40;4.73;;;5.20;99.90;;;;;;5028478;28;20462;-55
2023/01/10 09:05:11;;;;;;;26.17;4.73;;;5.20;99.90;;;;;;5028961;28;20125;-56
2023/01/10 09:07:40;;;;;;;36.17;4.70;;;5.20;99.90;;;;;;5038050;22;20461;-53
2023/01/10 09:10:06;;;;;;;29.58;4.85;;;5.30;99.90;;;;;;5024814;28;20645;-53
2023/01/10 09:15:16;;;;;;;31.73;4.40;;;5.30;99.90;;;;;;5028319;28;20136;-50
2023/01/10 09:17:42;;;;;;;19.87;3.87;;;5.30;99.90;;;;;;5027777;28;20595;-52
2023/01/10 09:20:09;;;;;;;30.10;4.87;;;5.40;99.90;;;;;;5027056;28;20043;-54
2023/01/10 09:22:38;;;;;;;31.40;4.40;;;5.40;99.90;;;;;;5028395;28;20025;-53
2023/01/10 09:25:05;;;;;;;28.13;5.22;;;5.40;99.90;;;;;;5028782;28;20095;-53
2023/01/10 09:27:31;;;;;;;25.07;4.03;;;5.60;99.90;;;;;;5027747;28;20034;-52
2023/01/10 09:29:57;;;;;;;31.10;4.60;;;5.70;99.90;;;;;;5026837;28;20478;-55
2023/01/10 09:32:23;;;;;;;30.03;4.83;;;5.80;99.90;;;;;;5028528;28;20033;-52
2023/01/10 09:34:49;;;;;;;37.60;12.47;;;5.90;99.90;;;;;;5028058;28;20025;-49
2023/01/10 09:37:15;;;;;;;26.57;5.27;;;6.00;99.90;;;;;;5028239;28;20371;-52
2023/01/10 09:39:40;;;;;;;29.10;4.40;;;6.20;99.90;;;;;;5027801;28;20048;-54
2023/01/10 09:42:18;;;;;;;21.60;4.57;;;6.30;99.90;;;;;;5028389;28;20367;-49
2023/01/10 09:44:55;;;;;;;23.43;3.83;;;6.40;99.90;;;;;;5022261;28;20029;-49
2023/01/10 09:47:47;;;;;;;24.67;4.07;;;6.40;99.90;;;;;;5022939;28;20424;-50
2023/01/10 09:50:37;;;;;;;21.27;4.20;;;6.50;99.90;;;;;;5024710;28;20099;-50
2023/01/10 09:53:16;;;;;;;27.97;4.57;;;6.50;99.90;;;;;;5023405;28;20048;-54
2023/01/10 09:55:47;;;;;;;25.87;3.80;;;6.60;99.90;;;;;;5022674;28;20029;-49
2023/01/10 09:58:16;;;;;;;22.90;3.90;;;6.70;99.90;;;;;;5026874;28;20446;-49
2023/01/10 10:00:48;;;;;;;22.58;3.78;;;6.80;99.90;;;;;;5028900;28;20117;-51
2023/01/10 10:03:33;;;;;;;22.50;4.53;;;6.90;99.90;;;;;;5028814;28;20036;-54
2023/01/10 10:05:59;;;;;;;19.03;4.47;;;6.90;99.90;;;;;;5029544;28;20056;-52
2023/01/10 10:08:25;;;;;;;18.63;3.20;;;7.20;99.90;;;;;;5027114;28;20057;-49
2023/01/10 10:11:03;;;;;;;24.87;4.00;;;7.50;99.90;;;;;;5028860;28;20385;-54
2023/01/10 10:13:50;;;;;;;24.47;4.17;;;7.60;99.90;;;;;;5028446;28;20269;-51
2023/01/10 10:16:38;;;;;;;20.33;3.73;;;7.90;99.90;;;;;;5027166;28;20557;-53
2023/01/10 10:19:28;;;;;;;18.07;3.60;;;8.00;99.90;;;;;;5028326;28;20390;-53
2023/01/10 10:22:15;;;;;;;24.13;4.20;;;8.10;99.90;;;;;;5022915;28;20511;-52
2023/01/10 10:24:56;;;;;;;22.70;3.50;;;8.00;99.90;;;;;;5025723;28;20068;-52
2023/01/10 10:27:23;;;;;;;18.70;3.03;;;7.90;99.90;;;;;;5027125;28;20029;-51
2023/01/10 10:30:12;;;;;;;22.53;3.47;;;7.80;99.90;;;;;;5028881;28;20025;-52
2023/01/10 10:32:51;;;;;;;21.33;3.33;;;7.80;99.90;;;;;;5021098;28;20045;-48
2023/01/10 10:35:30;;;;;;;17.33;3.15;;;7.70;99.90;;;;;;5027345;28;20033;-51
2023/01/10 10:38:04;;;;;;;17.40;3.43;;;7.60;99.90;;;;;;5026150;28;20033;-53
2023/01/10 10:40:38;;;;;;;20.67;3.70;;;7.70;99.90;;;;;;5027171;28;20041;-51
2023/01/10 10:43:34;;;;;;;22.67;3.47;;;7.60;99.90;;;;;;5028481;28;20064;-50
2023/01/10 10:46:12;;;;;;;25.17;3.57;;;7.60;99.90;;;;;;5026708;28;20501;-52
2023/01/10 10:49:05;;;;;;;16.30;3.07;;;7.70;99.90;;;;;;5027579;28;20040;-53
2023/01/10 10:51:46;;;;;;;20.90;3.33;;;7.70;99.90;;;;;;5026425;28;20040;-53
2023/01/10 10:54:15;;;;;;;14.87;3.00;;;7.80;99.90;;;;;;5028046;28;20400;-52
2023/01/10 10:56:42;;;;;;;23.37;3.87;;;7.80;99.90;;;;;;5026424;28;20040;-52
2023/01/10 10:59:08;;;;;;;22.77;3.80;;;7.80;99.90;;;;;;5027038;28;20029;-51
2023/01/10 11:01:34;;;;;;;23.23;3.23;;;7.80;99.90;;;;;;5027182;28;20041;-53
2023/01/10 11:04:05;;;;;;;19.80;4.00;;;7.80;99.90;;;;;;5028453;28;20047;-53
2023/01/10 11:06:34;;;;;;;15.13;2.90;;;7.70;99.90;;;;;;5025984;28;20266;-51
2023/01/10 11:09:02;;;;;;;22.45;3.50;;;7.70;99.90;;;;;;5026650;28;20041;-52
2023/01/10 11:11:33;;;;;;;27.02;3.90;;;7.70;99.90;;;;;;5027437;28;20111;-52
2023/01/10 11:14:07;;;;;;;23.53;3.57;;;7.80;99.90;;;;;;5026076;28;21047;-53
2023/01/10 11:16:43;;;;;;;24.03;3.17;;;7.90;99.90;;;;;;5025275;28;20082;-50
2023/01/10 11:19:23;;;;;;;20.30;3.90;;;7.80;99.90;;;;;;5027114;28;20026;-52
2023/01/10 11:22:05;;;;;;;15.43;2.80;;;7.70;99.90;;;;;;5027179;28;20053;-52
2023/01/10 11:24:37;;;;;;;16.77;3.10;;;7.70;99.90;;;;;;5028342;28;20470;-53
2023/01/10 11:27:24;;;;;;;19.67;3.30;;;7.60;99.90;;;;;;5029967;28;20449;-53
2023/01/10 11:29:55;;;;;;;27.27;4.07;;;7.70;99.90;;;;;;5029021;28;20038;-50
2023/01/10 11:32:32;;;;;;;23.53;3.83;;;7.80;99.90;;;;;;5030028;28;20075;-53
2023/01/10 11:35:02;;;;;;;24.37;3.10;;;7.90;99.90;;;;;;5029629;28;20033;-52
2023/01/10 11:37:33;;;;;;;24.07;3.90;;;8.00;99.90;;;;;;5029533;28;20478;-52
2023/01/10 11:40:22;;;;;;;25.80;3.27;;;8.00;99.90;;;;;;5027978;28;20026;-55
2023/01/10 11:42:48;;;;;;;;;;;8.00;99.90;;;;;;5029899;28;20028;-50
2023/01/10 11:45:17;;;;;;;19.57;2.57;;;8.00;99.90;;;;;;5029794;28;19916;-52
2023/01/10 11:47:55;;;;;;;22.17;2.57;;;8.00;99.90;;;;;;5029271;28;20118;-53
2023/01/10 11:50:24;;;;;;;24.57;3.93;;;8.00;99.90;;;;;;5029730;28;20497;-55
2023/01/10 11:52:51;;;;;;;17.13;2.90;;;8.00;99.90;;;;;;5029604;28;20032;-55
2023/01/10 11:55:19;;;;;;;18.67;2.97;;;8.00;99.90;;;;;;5029827;28;20055;-49
2023/01/10 11:57:53;;;;;;;22.40;3.33;;;7.90;99.90;;;;;;5028200;28;20056;-53
2023/01/10 12:00:19;;;;;;;19.07;3.67;;;7.80;99.90;;;;;;5029429;28;20025;-55
2023/01/10 12:02:45;;;;;;;22.30;3.77;;;7.80;99.90;;;;;;5029560;28;20026;-51
2023/01/10 12:05:18;;;;;;;17.47;3.43;;;7.90;99.90;;;;;;5041959;28;20033;-64
2023/01/10 12:07:55;;;;;;;19.00;2.77;;;8.00;99.90;;;;;;5041333;28;20461;-49
2023/01/10 12:10:22;;;;;;;15.03;3.83;;;8.00;99.90;;;;;;5029554;28;20033;-51
2023/01/10 12:12:57;;;;;;;20.87;3.70;;;8.00;99.90;;;;;;5028786;28;20110;-51
2023/01/10 12:15:30;;;;;;;18.57;3.83;;;8.00;99.90;;;;;;5029619;28;20025;-49
2023/01/10 12:18:01;;;;;;;17.93;2.83;;;7.90;99.90;;;;;;5028172;28;20503;-47
2023/01/10 12:20:30;;;;;;;17.70;3.40;;;8.00;99.90;;;;;;5028443;28;20100;-53
2023/01/10 12:23:05;;;;;;;20.77;3.30;;;8.00;99.90;;;;;;5028240;28;20067;-50
2023/01/10 12:25:37;;;;;;;15.03;2.57;;;8.10;99.90;;;;;;5029296;28;20046;-50
2023/01/10 12:28:03;;;;;;;21.13;2.47;;;8.10;99.90;;;;;;5027657;28;20025;-49
2023/01/10 12:30:51;;;;;;;22.07;2.93;;;8.20;99.90;;;;;;5029306;28;20032;-47
2023/01/10 12:33:33;;;;;;;15.43;2.83;;;8.30;99.90;;;;;;5028237;28;20425;-51
2023/01/10 12:36:10;;;;;;;21.27;2.90;;;8.40;99.90;;;;;;5024903;28;20588;-53
2023/01/10 12:45:12;;;;;;;16.80;2.80;;;8.50;99.90;;;;;;5028014;28;20036;-48
2023/01/10 12:48:06;;;;;;;19.27;3.37;;;8.60;99.90;;;;;;5025212;28;20175;-51
2023/01/10 12:50:43;;;;;;;19.63;3.17;;;8.80;99.90;;;;;;5028536;28;20037;-52
2023/01/10 12:53:29;;;;;;;18.77;3.00;;;8.80;99.90;;;;;;5026641;28;20048;-47
2023/01/10 12:55:58;;;;;;;17.87;2.90;;;8.80;99.90;;;;;;5021264;28;20057;-48
2023/01/10 12:58:46;;;;;;;18.00;2.78;;;8.80;99.90;;;;;;5027048;28;20421;-63
2023/01/10 13:01:39;;;;;;;9.23;2.42;;;8.70;99.90;;;;;;5028887;28;20478;-61
2023/01/10 13:04:09;;;;;;;14.70;2.53;;;8.70;99.90;;;;;;5026243;28;20083;-61
2023/01/10 13:06:38;;;;;;;17.97;2.90;;;8.70;99.90;;;;;;5028118;28;20099;-50
2023/01/10 13:09:24;;;;;;;17.92;3.05;;;8.70;99.90;;;;;;5027524;28;20049;-52
2023/01/10 13:12:16;;;;;;;25.90;3.23;;;8.70;99.90;;;;;;5028164;28;20034;-48
2023/01/10 13:14:57;;;;;;;17.93;2.50;;;8.70;99.90;;;;;;5027596;28;20037;-62
2023/01/10 13:17:32;;;;;;;23.23;2.93;;;8.80;99.90;;;;;;5028270;28;20021;-64
2023/01/10 13:20:16;;;;;;;19.50;2.57;;;8.80;99.90;;;;;;5027929;28;20032;-63
2023/01/10 13:22:44;;;;;;;16.13;2.17;;;8.70;99.90;;;;;;5027728;28;20426;-64
2023/01/10 13:25:33;;;;;;;22.67;2.93;;;8.70;99.90;;;;;;5028116;28;20029;-63